Time;durP1;ratioP1;P1;durP2;ratioP2;P2;SDS_P1;SDS_P2;PMS_P1;PMS_P2;Temp;Humidity;BMP_temperature;BMP_pressure;BME280_temperature;BME280_humidity;BME280_pressure;Samples;Min_cycle;Max_cycle;Signal;HPM_P1;HPM_P2
2023/12/09 00:01:15;;;;;;;25.30;14.07;;;5.40;36.20;;;;;;5026245;28;20485;-67
2023/12/09 00:03:43;;;;;;;22.90;14.33;;;5.40;36.10;;;;;;5023183;28;20481;-68
2023/12/09 00:06:10;;;;;;;25.33;15.47;;;5.40;36.10;;;;;;5028007;28;20483;-68
2023/12/09 00:08:37;;;;;;;21.20;13.00;;;5.30;36.20;;;;;;5023605;28;20489;-67
2023/12/09 00:11:05;;;;;;;24.23;14.03;;;5.40;36.20;;;;;;5025855;28;20465;-67
2023/12/09 00:13:32;;;;;;;20.90;13.67;;;5.40;36.10;;;;;;5026837;28;20467;-67
2023/12/09 00:15:59;;;;;;;26.53;14.60;;;5.30;36.20;;;;;;5027346;28;20466;-67
2023/12/09 00:18:26;;;;;;;22.90;13.77;;;5.40;36.80;;;;;;5026592;28;20466;-68
2023/12/09 00:20:54;;;;;;;24.60;14.10;;;5.40;36.10;;;;;;5031124;28;20490;-67
2023/12/09 00:23:21;;;;;;;23.40;13.10;;;5.30;36.20;;;;;;5028151;28;20561;-67
2023/12/09 00:25:48;;;;;;;21.43;14.20;;;5.30;36.20;;;;;;5027015;28;20531;-68
2023/12/09 00:28:15;;;;;;;22.83;12.53;;;5.30;36.20;;;;;;5026352;28;20486;-67
2023/12/09 00:30:42;;;;;;;23.87;13.23;;;5.30;36.30;;;;;;5020700;28;20469;-67
2023/12/09 00:33:09;;;;;;;22.23;12.20;;;5.30;36.30;;;;;;5025161;28;20467;-67
2023/12/09 00:35:36;;;;;;;22.60;13.87;;;5.30;36.30;;;;;;5024160;28;20932;-67
2023/12/09 00:38:04;;;;;;;21.10;13.30;;;5.30;36.30;;;;;;5025260;28;20479;-66
2023/12/09 00:40:31;;;;;;;23.10;13.47;;;5.30;36.30;;;;;;5025046;28;20463;-67
2023/12/09 00:42:57;;;;;;;19.57;12.70;;;5.30;36.30;;;;;;5023925;28;20463;-67
2023/12/09 00:45:25;;;;;;;20.87;13.00;;;5.30;36.30;;;;;;5027545;28;20469;-66
2023/12/09 00:47:51;;;;;;;22.10;13.33;;;5.30;36.20;;;;;;5025600;28;20488;-67
2023/12/09 00:50:18;;;;;;;22.57;14.00;;;5.40;36.30;;;;;;5027829;28;20473;-67
2023/12/09 00:52:45;;;;;;;24.90;13.40;;;5.40;36.30;;;;;;5028449;28;20459;-67
2023/12/09 00:55:13;;;;;;;25.87;13.67;;;5.40;36.30;;;;;;5029827;28;20469;-67
2023/12/09 00:57:40;;;;;;;23.23;13.40;;;5.40;36.30;;;;;;5029405;28;20467;-67
2023/12/09 01:00:08;;;;;;;21.53;12.70;;;5.40;36.20;;;;;;5026951;28;20545;-67
2023/12/09 01:02:35;;;;;;;21.67;13.90;;;5.40;36.30;;;;;;5027349;28;20475;-67
2023/12/09 01:05:02;;;;;;;25.00;13.33;;;5.40;36.30;;;;;;5025072;28;20465;-67
2023/12/09 01:07:29;;;;;;;21.50;13.27;;;5.40;36.20;;;;;;5028888;28;20490;-67
2023/12/09 01:09:56;;;;;;;19.63;11.97;;;5.40;36.30;;;;;;5028048;28;20468;-67
2023/12/09 01:12:24;;;;;;;21.60;12.33;;;5.40;36.30;;;;;;5029807;28;20459;-67
2023/12/09 01:14:51;;;;;;;22.50;13.47;;;5.40;36.20;;;;;;5027064;28;20454;-67
2023/12/09 01:17:17;;;;;;;23.80;14.30;;;5.40;36.30;;;;;;5029437;28;20601;-67
2023/12/09 01:19:44;;;;;;;22.50;12.07;;;5.50;36.40;;;;;;5030150;28;21317;-67
2023/12/09 01:22:11;;;;;;;24.27;12.87;;;5.40;36.30;;;;;;5029571;28;20462;-67
2023/12/09 01:24:38;;;;;;;23.67;14.03;;;5.50;36.50;;;;;;5027323;28;20817;-67
2023/12/09 01:27:05;;;;;;;25.50;13.93;;;5.50;36.50;;;;;;5029205;28;20495;-67
2023/12/09 01:29:33;;;;;;;25.10;14.00;;;5.50;36.40;;;;;;5028741;28;20463;-67
2023/12/09 01:32:00;;;;;;;21.50;12.77;;;5.50;36.40;;;;;;5028131;28;20474;-67
2023/12/09 01:34:27;;;;;;;24.20;13.70;;;5.50;36.30;;;;;;5029289;28;20973;-67
2023/12/09 01:36:55;;;;;;;24.43;14.80;;;5.50;36.30;;;;;;5028422;28;20501;-67
2023/12/09 01:39:22;;;;;;;25.07;14.77;;;5.50;36.00;;;;;;5028913;28;20463;-67
2023/12/09 01:41:49;;;;;;;26.40;14.53;;;5.50;36.20;;;;;;5029210;28;20855;-67
2023/12/09 01:44:15;;;;;;;20.70;12.63;;;5.50;36.00;;;;;;5028975;28;20481;-67
2023/12/09 01:46:44;;;;;;;29.03;14.30;;;5.50;36.10;;;;;;5029400;28;20504;-66
2023/12/09 01:49:11;;;;;;;28.63;14.17;;;5.50;36.10;;;;;;5029262;28;20459;-66
2023/12/09 01:51:39;;;;;;;24.70;15.00;;;5.50;36.20;;;;;;5028752;28;20470;-67
2023/12/09 01:54:06;;;;;;;22.77;13.80;;;5.50;36.30;;;;;;5024311;28;20463;-67
2023/12/09 01:56:33;;;;;;;22.00;13.37;;;5.50;36.20;;;;;;5025324;28;20513;-67
2023/12/09 01:59:00;;;;;;;22.43;12.73;;;5.60;36.20;;;;;;5027169;28;20467;-66
2023/12/09 02:01:27;;;;;;;22.67;13.17;;;5.50;36.30;;;;;;5028759;28;20571;-67
2023/12/09 02:03:56;;;;;;;30.10;15.07;;;5.50;36.50;;;;;;5028469;28;20462;-66
2023/12/09 02:06:22;;;;;;;22.57;13.73;;;5.50;36.50;;;;;;5026931;28;20478;-67
2023/12/09 02:08:50;;;;;;;23.53;13.63;;;5.50;36.70;;;;;;5030864;28;20566;-67
2023/12/09 02:11:25;;;;;;;22.63;13.33;;;5.50;36.70;;;;;;5028865;28;20991;-67
2023/12/09 02:13:57;;;;;;;20.43;12.17;;;5.50;36.80;;;;;;5029214;28;20477;-67
2023/12/09 02:16:41;;;;;;;22.93;12.47;;;5.50;36.80;;;;;;5025866;28;20572;-67
2023/12/09 02:19:13;;;;;;;26.83;13.67;;;5.50;36.80;;;;;;5023472;28;20473;-67
2023/12/09 02:22:03;;;;;;;24.00;14.60;;;5.50;36.70;;;;;;5026264;28;20872;-67
2023/12/09 02:24:31;;;;;;;23.57;12.60;;;5.50;37.00;;;;;;5029583;28;20546;-67
2023/12/09 02:27:03;;;;;;;23.30;12.80;;;5.50;36.60;;;;;;5026481;28;20483;-67
2023/12/09 02:29:34;;;;;;;24.13;13.73;;;5.50;36.80;;;;;;5028813;28;20463;-66
2023/12/09 02:32:05;;;;;;;25.80;15.60;;;5.50;36.90;;;;;;5024905;28;20482;-67
2023/12/09 02:34:36;;;;;;;25.33;13.33;;;5.50;36.90;;;;;;5028368;28;20466;-67
2023/12/09 02:37:05;;;;;;;24.70;13.17;;;5.50;36.80;;;;;;5026000;28;20483;-67
2023/12/09 02:39:34;;;;;;;24.30;13.30;;;5.50;36.90;;;;;;5024226;28;21023;-67
2023/12/09 02:42:02;;;;;;;24.90;13.07;;;5.50;36.90;;;;;;5027000;28;20470;-67
2023/12/09 02:44:29;;;;;;;23.07;12.70;;;5.50;37.00;;;;;;5027052;28;20557;-67
2023/12/09 02:46:56;;;;;;;24.93;12.70;;;5.50;37.20;;;;;;5025122;28;20490;-67
2023/12/09 02:49:23;;;;;;;25.97;14.03;;;5.50;37.00;;;;;;5025151;28;20978;-67
2023/12/09 02:51:51;;;;;;;31.13;14.53;;;5.60;36.90;;;;;;5026185;28;20458;-67
2023/12/09 02:54:18;;;;;;;26.90;14.70;;;5.50;36.90;;;;;;5025787;28;21010;-67
2023/12/09 02:56:46;;;;;;;31.13;15.27;;;5.60;36.70;;;;;;5024784;28;20486;-67
2023/12/09 02:59:13;;;;;;;32.13;14.80;;;5.60;36.90;;;;;;5023594;28;20458;-67
2023/12/09 03:01:40;;;;;;;29.17;15.90;;;5.50;36.80;;;;;;5026932;28;20489;-67
2023/12/09 03:04:07;;;;;;;31.00;16.23;;;5.50;36.90;;;;;;5023520;28;20802;-67
2023/12/09 03:06:33;;;;;;;31.57;15.03;;;5.50;36.80;;;;;;5021159;28;20559;-67
2023/12/09 03:09:00;;;;;;;30.60;13.97;;;5.50;36.90;;;;;;5024823;28;20483;-67
2023/12/09 03:11:27;;;;;;;26.60;14.30;;;5.50;36.80;;;;;;5028488;28;21275;-67
2023/12/09 03:13:55;;;;;;;30.17;14.40;;;5.50;36.80;;;;;;5028788;28;20463;-67
2023/12/09 03:16:22;;;;;;;29.07;15.07;;;5.50;36.90;;;;;;5026978;28;20474;-67
2023/12/09 03:18:49;;;;;;;31.80;15.50;;;5.40;37.00;;;;;;5027128;28;20852;-67
2023/12/09 03:21:16;;;;;;;31.40;14.90;;;5.40;37.10;;;;;;5027571;28;20461;-67
2023/12/09 03:23:43;;;;;;;27.50;14.50;;;5.40;37.20;;;;;;5026202;28;20467;-66
2023/12/09 03:26:16;;;;;;;28.90;14.77;;;5.40;37.20;;;;;;5026529;28;20482;-67
2023/12/09 03:28:44;;;;;;;35.53;13.83;;;5.40;37.50;;;;;;5025148;28;20491;-66
2023/12/09 03:31:13;;;;;;;30.97;14.37;;;5.40;37.50;;;;;;5025785;28;20479;-66
2023/12/09 03:33:40;;;;;;;29.40;13.90;;;5.40;37.50;;;;;;5027876;28;20467;-66
2023/12/09 03:36:08;;;;;;;28.17;12.53;;;5.40;37.50;;;;;;5028613;28;20483;-66
2023/12/09 03:38:35;;;;;;;29.17;12.63;;;5.40;37.50;;;;;;5027675;28;20801;-68
2023/12/09 03:41:04;;;;;;;25.50;13.30;;;5.40;37.80;;;;;;5027121;28;20455;-66
2023/12/09 03:43:31;;;;;;;24.93;12.27;;;5.40;37.80;;;;;;5024002;28;20462;-66
2023/12/09 03:45:59;;;;;;;24.23;11.47;;;5.40;37.80;;;;;;5023726;28;20463;-67
2023/12/09 03:48:28;;;;;;;26.00;11.87;;;5.40;37.80;;;;;;5023929;28;20479;-66
2023/12/09 03:50:55;;;;;;;20.03;9.40;;;5.40;37.90;;;;;;5026415;28;20469;-66
2023/12/09 03:53:22;;;;;;;26.60;11.17;;;5.40;38.10;;;;;;5025359;28;20517;-66
2023/12/09 03:55:50;;;;;;;21.97;11.17;;;5.40;38.10;;;;;;5026666;28;20454;-68
2023/12/09 03:58:16;;;;;;;24.73;11.20;;;5.40;38.00;;;;;;5025440;28;20859;-66
2023/12/09 04:00:44;;;;;;;24.00;11.77;;;5.40;38.00;;;;;;5026609;28;20482;-69
2023/12/09 04:03:11;;;;;;;25.83;11.60;;;5.40;38.10;;;;;;5026789;28;20525;-67
2023/12/09 04:05:41;;;;;;;23.93;10.57;;;5.40;38.10;;;;;;5024620;28;20463;-66
2023/12/09 04:08:08;;;;;;;23.93;11.17;;;5.40;37.90;;;;;;5021683;28;20489;-66
2023/12/09 04:10:35;;;;;;;23.50;10.60;;;5.40;38.10;;;;;;5026185;28;20550;-68
2023/12/09 04:13:02;;;;;;;22.67;10.60;;;5.40;38.10;;;;;;5027533;28;20481;-68
2023/12/09 04:15:29;;;;;;;30.77;12.33;;;5.40;38.10;;;;;;5026286;28;20467;-66
2023/12/09 04:17:56;;;;;;;28.53;13.73;;;5.40;38.10;;;;;;5027034;28;20504;-68
2023/12/09 04:20:23;;;;;;;26.80;11.67;;;5.40;38.00;;;;;;5030065;28;20550;-68
2023/12/09 04:22:52;;;;;;;31.27;12.07;;;5.40;38.00;;;;;;5032104;28;20463;-67
2023/12/09 04:25:18;;;;;;;28.90;11.13;;;5.40;37.90;;;;;;5031131;28;20541;-66
2023/12/09 04:27:45;;;;;;;22.80;11.00;;;5.40;37.90;;;;;;5029384;28;20490;-66
2023/12/09 04:30:13;;;;;;;28.80;11.70;;;5.50;38.00;;;;;;5030532;28;20459;-66
2023/12/09 04:32:40;;;;;;;29.27;14.23;;;5.40;37.80;;;;;;5030068;28;20836;-66
2023/12/09 04:35:08;;;;;;;27.37;12.60;;;5.40;37.80;;;;;;5027537;28;20947;-66
2023/12/09 04:37:35;;;;;;;31.90;11.90;;;5.40;37.70;;;;;;5026603;28;20929;-66
2023/12/09 04:40:05;;;;;;;30.83;11.10;;;5.40;37.70;;;;;;5029484;28;20545;-66
2023/12/09 04:42:32;;;;;;;35.70;12.47;;;5.40;37.70;;;;;;5030245;28;20465;-66
2023/12/09 04:44:59;;;;;;;26.93;14.17;;;5.40;37.60;;;;;;5031291;28;20454;-68
2023/12/09 04:47:26;;;;;;;30.47;11.87;;;5.40;37.60;;;;;;5050324;22;23178;-67
2023/12/09 04:49:53;;;;;;;29.50;11.10;;;5.40;37.60;;;;;;5050435;28;20545;-67
2023/12/09 04:52:20;;;;;;;50.70;12.27;;;5.40;38.10;;;;;;5049086;28;20457;-67
2023/12/09 04:54:47;;;;;;;23.83;10.03;;;5.40;37.50;;;;;;5050020;28;20476;-67
2023/12/09 04:57:15;;;;;;;30.53;12.17;;;5.40;37.50;;;;;;5050910;28;20546;-68
2023/12/09 04:59:43;;;;;;;37.67;12.37;;;5.40;37.60;;;;;;5050794;28;21313;-68
2023/12/09 05:02:10;;;;;;;26.43;11.30;;;5.40;37.50;;;;;;5063670;28;20473;-68
2023/12/09 05:04:37;;;;;;;33.97;11.27;;;5.40;37.40;;;;;;5070797;28;20483;-69
2023/12/09 05:07:04;;;;;;;29.23;11.73;;;5.40;37.50;;;;;;5067935;28;20984;-68
2023/12/09 05:09:31;;;;;;;26.83;11.30;;;5.40;37.50;;;;;;5065498;28;20488;-67
2023/12/09 05:11:58;;;;;;;29.80;11.60;;;5.40;37.50;;;;;;5070949;28;20551;-67
2023/12/09 05:14:26;;;;;;;30.23;11.70;;;5.40;37.50;;;;;;5068603;28;20460;-67
2023/12/09 05:16:53;;;;;;;34.57;10.60;;;5.40;37.50;;;;;;5068650;28;20840;-67
2023/12/09 05:19:20;;;;;;;31.13;13.30;;;5.40;37.50;;;;;;5062019;28;20544;-67
2023/12/09 05:21:47;;;;;;;29.30;11.47;;;5.40;37.50;;;;;;5068652;28;20473;-67
2023/12/09 05:24:14;;;;;;;28.53;10.33;;;5.40;37.60;;;;;;5067107;28;20937;-67
2023/12/09 05:26:42;;;;;;;41.70;11.60;;;5.40;37.60;;;;;;5068511;28;20465;-67
2023/12/09 05:29:09;;;;;;;29.37;9.53;;;5.40;37.70;;;;;;5066451;28;20527;-67
2023/12/09 05:31:37;;;;;;;28.90;11.67;;;5.40;37.90;;;;;;5066174;28;20834;-67
2023/12/09 05:34:04;;;;;;;22.93;9.57;;;5.40;38.00;;;;;;5065660;28;20548;-67
2023/12/09 05:36:31;;;;;;;33.10;10.97;;;5.40;38.00;;;;;;5067623;28;21363;-67
2023/12/09 05:38:58;;;;;;;24.87;10.83;;;5.40;38.10;;;;;;5068358;28;20449;-69
2023/12/09 05:41:25;;;;;;;30.20;10.90;;;5.40;38.10;;;;;;5063579;28;20564;-67
2023/12/09 05:43:52;;;;;;;39.63;11.00;;;5.50;38.20;;;;;;5069094;28;21205;-68
2023/12/09 05:46:19;;;;;;;23.53;10.63;;;5.50;38.10;;;;;;5065533;28;20603;-68
2023/12/09 05:48:48;;;;;;;27.33;12.03;;;5.50;38.10;;;;;;5069675;28;20980;-67
2023/12/09 05:51:15;;;;;;;29.23;11.47;;;5.50;38.10;;;;;;5064181;28;20468;-68
2023/12/09 05:53:42;;;;;;;30.73;10.30;;;5.50;38.10;;;;;;5077707;28;20529;-67
2023/12/09 05:56:10;;;;;;;31.27;10.97;;;5.50;38.20;;;;;;5097089;28;20472;-68
2023/12/09 05:58:38;;;;;;;23.63;10.33;;;5.50;38.50;;;;;;5078836;28;20461;-68
2023/12/09 06:01:05;;;;;;;23.17;10.00;;;5.60;38.30;;;;;;5065108;28;20556;-67
2023/12/09 06:03:32;;;;;;;33.93;11.77;;;5.50;38.50;;;;;;5063996;28;20467;-67
2023/12/09 06:06:00;;;;;;;23.20;10.53;;;5.50;38.50;;;;;;5066284;28;20464;-67
2023/12/09 06:08:27;;;;;;;30.03;10.83;;;5.50;39.20;;;;;;5065555;28;20485;-68
2023/12/09 06:10:54;;;;;;;29.40;11.83;;;5.50;38.40;;;;;;5066232;28;20465;-68
2023/12/09 06:13:21;;;;;;;33.43;13.20;;;5.50;38.60;;;;;;5066708;28;20461;-69
2023/12/09 06:15:48;;;;;;;29.07;13.43;;;5.50;38.70;;;;;;5068254;28;20475;-68
2023/12/09 06:18:15;;;;;;;29.27;11.23;;;5.50;38.90;;;;;;5068043;28;20534;-68
2023/12/09 06:20:42;;;;;;;29.97;11.50;;;5.50;38.90;;;;;;5065380;28;20465;-68
2023/12/09 06:23:10;;;;;;;24.00;11.33;;;5.50;39.10;;;;;;5066655;28;20457;-68
2023/12/09 06:25:37;;;;;;;31.73;11.67;;;5.50;39.10;;;;;;5066491;28;20933;-67
2023/12/09 06:28:04;;;;;;;27.23;11.50;;;5.50;39.20;;;;;;5067371;28;20484;-68
2023/12/09 06:30:32;;;;;;;25.43;10.57;;;5.50;39.30;;;;;;5060774;28;20477;-67
2023/12/09 06:32:58;;;;;;;27.30;12.33;;;5.50;39.50;;;;;;5068094;28;20992;-67
2023/12/09 06:35:25;;;;;;;31.70;11.20;;;5.50;39.30;;;;;;5066800;28;20549;-67
2023/12/09 06:37:54;;;;;;;27.60;11.20;;;5.50;39.40;;;;;;5065404;28;20483;-68
2023/12/09 06:40:22;;;;;;;34.20;11.47;;;5.50;39.50;;;;;;5066172;28;20887;-66
2023/12/09 06:42:49;;;;;;;26.00;11.40;;;5.50;39.40;;;;;;5064490;28;20461;-67
2023/12/09 06:45:16;;;;;;;25.90;10.90;;;5.50;39.40;;;;;;5065484;28;20811;-67
2023/12/09 06:47:43;;;;;;;27.17;11.47;;;5.50;39.50;;;;;;5068349;28;20480;-67
2023/12/09 06:50:11;;;;;;;24.23;10.47;;;5.50;39.40;;;;;;5065791;28;20571;-67
2023/12/09 06:52:39;;;;;;;32.37;12.50;;;5.50;39.60;;;;;;5066981;28;20465;-67
2023/12/09 06:55:06;;;;;;;28.63;11.77;;;5.50;39.70;;;;;;5067521;28;20469;-67
2023/12/09 06:57:34;;;;;;;31.23;13.40;;;5.50;39.60;;;;;;5065395;28;20496;-66
2023/12/09 07:00:05;;;;;;;29.07;11.70;;;5.50;39.70;;;;;;5067485;28;20472;-67
2023/12/09 07:02:33;;;;;;;31.67;12.93;;;5.60;39.60;;;;;;5065964;28;20541;-67
2023/12/09 07:04:59;;;;;;;29.63;12.93;;;5.60;39.60;;;;;;5066283;28;20453;-67
2023/12/09 07:07:26;;;;;;;28.57;11.43;;;5.60;39.40;;;;;;5066272;28;20569;-67
2023/12/09 07:09:55;;;;;;;29.00;11.70;;;5.70;39.40;;;;;;5067437;28;20490;-66
2023/12/09 07:12:22;;;;;;;27.30;12.33;;;5.70;39.40;;;;;;5067153;28;21031;-67
2023/12/09 07:14:51;;;;;;;32.57;12.83;;;5.70;39.40;;;;;;5063504;28;20466;-66
2023/12/09 07:17:17;;;;;;;30.83;12.80;;;5.70;39.30;;;;;;5066634;28;20582;-67
2023/12/09 07:19:44;;;;;;;30.50;13.07;;;5.70;39.30;;;;;;5067296;28;20553;-67
2023/12/09 07:22:11;;;;;;;29.67;12.13;;;5.70;39.40;;;;;;5068483;28;20461;-67
2023/12/09 07:24:38;;;;;;;36.47;13.43;;;5.70;39.30;;;;;;5064593;28;20465;-68
2023/12/09 07:27:05;;;;;;;28.73;13.10;;;5.70;39.30;;;;;;5065801;28;21026;-68
2023/12/09 07:29:32;;;;;;;27.57;13.77;;;5.80;39.20;;;;;;5066464;28;20489;-68
2023/12/09 07:32:00;;;;;;;30.83;13.30;;;5.80;39.30;;;;;;5063319;28;20473;-68
2023/12/09 07:34:27;;;;;;;32.30;12.00;;;5.80;39.20;;;;;;5063022;28;20465;-68
2023/12/09 07:36:54;;;;;;;34.33;13.60;;;5.80;39.20;;;;;;5062427;28;20577;-68
2023/12/09 07:39:21;;;;;;;27.73;12.53;;;5.80;39.80;;;;;;5060526;28;20457;-68
2023/12/09 07:41:50;;;;;;;31.07;11.37;;;5.80;39.40;;;;;;5057926;28;20520;-68
2023/12/09 07:44:17;;;;;;;27.30;12.57;;;5.90;39.40;;;;;;5066397;28;20465;-68
2023/12/09 07:46:44;;;;;;;32.80;14.00;;;5.90;39.50;;;;;;5063926;28;20493;-67
2023/12/09 07:49:12;;;;;;;31.77;11.23;;;5.90;39.40;;;;;;5059872;28;20489;-68
2023/12/09 07:51:40;;;;;;;33.63;13.40;;;5.90;39.50;;;;;;5062707;28;21224;-68
2023/12/09 07:54:07;;;;;;;31.73;13.37;;;6.00;39.40;;;;;;5065350;28;20465;-68
2023/12/09 07:56:34;;;;;;;23.77;11.10;;;6.00;39.50;;;;;;5062161;28;21036;-68
2023/12/09 07:59:01;;;;;;;33.80;14.30;;;6.00;39.90;;;;;;5066606;28;20859;-68
2023/12/09 08:01:28;;;;;;;32.30;13.00;;;6.00;40.10;;;;;;5063944;28;20944;-68
2023/12/09 08:03:56;;;;;;;27.47;12.00;;;6.10;40.10;;;;;;5064838;28;20565;-68
2023/12/09 08:06:24;;;;;;;29.57;12.43;;;6.10;39.40;;;;;;5065309;28;20481;-68
2023/12/09 08:08:52;;;;;;;28.17;12.60;;;6.10;39.40;;;;;;5062205;28;21102;-68
2023/12/09 08:11:19;;;;;;;32.90;13.07;;;6.10;39.30;;;;;;5066926;28;20471;-68
2023/12/09 08:13:46;;;;;;;29.17;14.20;;;6.20;39.30;;;;;;5062352;28;20809;-68
2023/12/09 08:16:13;;;;;;;31.00;14.07;;;6.20;39.10;;;;;;5067376;28;20545;-68
2023/12/09 08:18:42;;;;;;;31.20;13.60;;;6.30;39.00;;;;;;5064941;28;20485;-68
2023/12/09 08:21:08;;;;;;;30.83;14.03;;;6.30;39.50;;;;;;5063828;28;20540;-67
2023/12/09 08:23:38;;;;;;;32.57;14.07;;;6.30;39.50;;;;;;5062091;28;20470;-68
2023/12/09 08:26:05;;;;;;;35.23;13.43;;;6.40;39.30;;;;;;5066167;28;20864;-68
2023/12/09 08:28:32;;;;;;;31.97;13.50;;;6.40;38.70;;;;;;5064457;28;20516;-67
2023/12/09 08:30:58;;;;;;;31.50;14.40;;;6.40;38.80;;;;;;5064515;28;20556;-68
2023/12/09 08:33:25;;;;;;;30.33;11.63;;;6.40;38.60;;;;;;5062321;28;20461;-68
2023/12/09 08:35:52;;;;;;;28.80;13.30;;;6.40;38.50;;;;;;5059441;28;20472;-68
2023/12/09 08:38:19;;;;;;;30.77;13.93;;;6.40;38.60;;;;;;5062603;28;20516;-68
2023/12/09 08:40:47;;;;;;;27.70;14.13;;;6.50;38.60;;;;;;5063523;28;20467;-68
2023/12/09 08:43:14;;;;;;;21.73;12.20;;;6.50;38.30;;;;;;5065796;28;20467;-68
2023/12/09 08:45:41;;;;;;;30.37;14.00;;;6.60;38.10;;;;;;5065786;28;20479;-68
2023/12/09 08:48:08;;;;;;;30.13;16.00;;;6.60;38.00;;;;;;5063540;28;20486;-68
2023/12/09 08:50:34;;;;;;;36.60;16.70;;;6.70;37.60;;;;;;5066438;28;20477;-68
2023/12/09 08:53:02;;;;;;;27.20;14.70;;;6.70;37.40;;;;;;5066984;28;20829;-68
2023/12/09 08:55:29;;;;;;;28.20;14.30;;;6.70;37.40;;;;;;5083676;28;20444;-68
2023/12/09 08:57:57;;;;;;;32.47;14.60;;;6.80;37.20;;;;;;5089359;28;20487;-68
2023/12/09 09:00:26;;;;;;;24.10;12.67;;;6.90;37.30;;;;;;5066845;28;20528;-68
2023/12/09 09:02:55;;;;;;;27.50;15.13;;;6.90;37.10;;;;;;5065238;28;20514;-68
2023/12/09 09:05:22;;;;;;;34.23;14.63;;;7.00;36.80;;;;;;5068471;28;20544;-69
2023/12/09 09:07:49;;;;;;;33.77;16.37;;;7.10;36.70;;;;;;5070649;28;20488;-68
2023/12/09 09:10:16;;;;;;;26.03;14.27;;;7.10;36.40;;;;;;5071025;28;20576;-68
2023/12/09 09:12:44;;;;;;;25.47;14.50;;;7.10;36.40;;;;;;5070751;28;20463;-68
2023/12/09 09:15:13;;;;;;;27.20;15.20;;;7.10;36.40;;;;;;5067642;28;20471;-68
2023/12/09 09:17:40;;;;;;;26.37;14.10;;;7.10;36.30;;;;;;5068946;28;20487;-69
2023/12/09 09:20:08;;;;;;;29.67;15.40;;;7.10;36.30;;;;;;5068347;28;20548;-68
2023/12/09 09:22:35;;;;;;;27.43;13.90;;;7.10;37.10;;;;;;5069590;28;23070;-68
2023/12/09 09:25:02;;;;;;;27.70;15.17;;;7.10;36.70;;;;;;5068350;28;20560;-68
2023/12/09 09:27:29;;;;;;;32.57;16.90;;;7.10;36.70;;;;;;5066681;28;20480;-68
2023/12/09 09:29:56;;;;;;;33.17;16.30;;;7.10;36.60;;;;;;5069208;28;20495;-68
2023/12/09 09:32:24;;;;;;;26.90;14.90;;;7.10;36.60;;;;;;5073115;28;20710;-68
2023/12/09 09:34:51;;;;;;;27.90;15.90;;;7.10;36.50;;;;;;5069372;28;20476;-68
2023/12/09 09:37:18;;;;;;;35.07;16.50;;;7.20;36.50;;;;;;5065708;28;20490;-68
2023/12/09 09:39:45;;;;;;;27.13;14.27;;;7.20;36.40;;;;;;5066289;28;20465;-68
2023/12/09 09:42:26;;;;;;;33.10;17.60;;;7.30;36.30;;;;;;5064934;28;20523;-68
2023/12/09 09:45:05;;;;;;;32.27;16.90;;;7.30;35.80;;;;;;5067306;28;20461;-69
2023/12/09 09:47:36;;;;;;;27.80;16.00;;;7.40;35.60;;;;;;5066570;28;20480;-68
2023/12/09 09:50:05;;;;;;;33.20;17.87;;;7.40;35.50;;;;;;5068743;28;20495;-67
2023/12/09 09:52:35;;;;;;;32.17;15.40;;;7.50;35.40;;;;;;5067453;28;20908;-67
2023/12/09 09:55:03;;;;;;;27.90;14.67;;;7.50;35.20;;;;;;5067257;28;20463;-68
2023/12/09 09:57:30;;;;;;;28.50;15.70;;;7.50;34.90;;;;;;5068025;28;20483;-67
2023/12/09 09:59:59;;;;;;;23.47;13.80;;;7.50;35.00;;;;;;5066743;28;20454;-67
2023/12/09 10:02:27;;;;;;;24.27;16.30;;;7.50;34.90;;;;;;5066229;28;20561;-68
2023/12/09 10:04:55;;;;;;;22.93;15.10;;;7.50;34.80;;;;;;5070869;28;20471;-67
2023/12/09 10:07:22;;;;;;;23.80;14.70;;;7.60;34.40;;;;;;5066065;28;20975;-67
2023/12/09 10:09:50;;;;;;;22.80;14.33;;;7.60;34.70;;;;;;5066655;28;20949;-67
2023/12/09 10:12:17;;;;;;;21.87;14.40;;;7.60;33.80;;;;;;5065887;28;20928;-67
2023/12/09 10:14:44;;;;;;;23.93;14.77;;;7.60;33.80;;;;;;5066525;28;21056;-67
2023/12/09 10:17:11;;;;;;;24.60;14.83;;;7.60;33.60;;;;;;5065348;28;20478;-67
2023/12/09 10:19:39;;;;;;;21.83;14.73;;;7.60;33.70;;;;;;5062283;28;20544;-67
2023/12/09 10:22:07;;;;;;;23.10;15.13;;;7.50;33.50;;;;;;5066545;28;20556;-68
2023/12/09 10:24:34;;;;;;;24.27;15.07;;;7.60;33.40;;;;;;5064649;28;20457;-66
2023/12/09 10:27:01;;;;;;;26.63;16.53;;;7.50;33.80;;;;;;5070632;28;20476;-67
2023/12/09 10:29:28;;;;;;;25.90;16.60;;;7.60;33.90;;;;;;5068530;28;20477;-67
2023/12/09 10:31:55;;;;;;;23.40;15.47;;;7.60;34.10;;;;;;5067598;28;20479;-67
2023/12/09 10:34:22;;;;;;;21.97;13.70;;;7.60;33.80;;;;;;5067113;28;20544;-67
2023/12/09 10:36:49;;;;;;;23.30;14.47;;;7.70;33.70;;;;;;5065915;28;20895;-67
2023/12/09 10:39:19;;;;;;;22.73;15.30;;;7.80;33.60;;;;;;5064421;28;20460;-68
2023/12/09 10:41:47;;;;;;;22.50;15.93;;;7.90;33.50;;;;;;5064699;28;20511;-68
2023/12/09 10:44:14;;;;;;;27.43;16.50;;;8.00;33.10;;;;;;5068582;28;20518;-67
2023/12/09 10:46:41;;;;;;;24.60;15.80;;;8.20;32.80;;;;;;5062261;28;20477;-67
2023/12/09 10:49:08;;;;;;;22.60;15.85;;;8.40;32.50;;;;;;5060310;22;20555;-69
2023/12/09 10:51:34;;;;;;;23.53;16.00;;;8.40;31.90;;;;;;5044833;28;20450;-68
2023/12/09 10:54:01;;;;;;;22.87;15.20;;;8.40;31.90;;;;;;5045923;28;20993;-68
2023/12/09 10:56:30;;;;;;;21.23;15.20;;;8.40;32.40;;;;;;5044236;28;20927;-68
2023/12/09 10:58:57;;;;;;;21.43;14.30;;;8.30;31.80;;;;;;5048583;28;20531;-68
2023/12/09 11:01:25;;;;;;;22.27;13.87;;;8.30;31.10;;;;;;5046519;28;20966;-68
2023/12/09 11:03:52;;;;;;;21.50;13.50;;;8.30;31.10;;;;;;5048794;28;20541;-68
2023/12/09 11:06:21;;;;;;;21.37;14.27;;;8.40;30.60;;;;;;5046502;28;20500;-68
2023/12/09 11:08:49;;;;;;;19.93;13.10;;;8.40;30.60;;;;;;5041372;28;20458;-68
2023/12/09 11:11:18;;;;;;;20.10;13.40;;;8.50;30.50;;;;;;5043007;28;20505;-68
2023/12/09 11:13:48;;;;;;;20.63;13.17;;;8.60;30.10;;;;;;5043055;28;20477;-68
2023/12/09 11:16:18;;;;;;;19.40;14.00;;;8.60;30.20;;;;;;5038494;28;20499;-69
2023/12/09 11:18:52;;;;;;;19.70;13.37;;;8.80;30.20;;;;;;5042046;28;20462;-69
2023/12/09 11:21:21;;;;;;;20.40;13.80;;;8.90;29.70;;;;;;5043132;28;20970;-68
2023/12/09 11:23:50;;;;;;;19.47;14.43;;;9.00;30.00;;;;;;5046835;28;20470;-68
2023/12/09 11:26:18;;;;;;;20.27;12.67;;;9.10;28.70;;;;;;5045797;28;20462;-68
2023/12/09 11:29:00;;;;;;;16.50;12.50;;;9.20;28.10;;;;;;5046738;28;20472;-68
2023/12/09 11:31:38;;;;;;;18.00;12.57;;;9.20;27.60;;;;;;5040992;28;20496;-68
2023/12/09 11:34:06;;;;;;;17.77;12.80;;;9.20;27.80;;;;;;5052259;28;20454;-67
2023/12/09 11:36:36;;;;;;;19.67;12.17;;;9.20;27.80;;;;;;5049899;28;20489;-67
2023/12/09 11:39:06;;;;;;;17.83;13.20;;;9.40;28.00;;;;;;5052160;28;20840;-67
2023/12/09 11:41:34;;;;;;;16.27;12.40;;;9.40;27.80;;;;;;5047927;28;20967;-67
2023/12/09 11:44:03;;;;;;;14.40;9.90;;;9.50;27.10;;;;;;5053203;28;20901;-67
2023/12/09 11:46:31;;;;;;;15.77;10.90;;;9.50;26.70;;;;;;5046926;28;20482;-67
2023/12/09 11:48:58;;;;;;;17.17;12.30;;;9.50;26.10;;;;;;5046972;28;20472;-67
2023/12/09 11:51:25;;;;;;;17.60;10.33;;;9.50;25.90;;;;;;5043000;28;20815;-68
2023/12/09 11:53:54;;;;;;;16.40;11.33;;;9.60;26.50;;;;;;5048964;28;20853;-67
2023/12/09 11:56:21;;;;;;;15.17;11.30;;;9.70;25.80;;;;;;5048849;28;20517;-69
2023/12/09 11:58:48;;;;;;;16.63;13.53;;;9.60;25.60;;;;;;5047613;28;20533;-67
2023/12/09 12:01:17;;;;;;;21.10;14.90;;;9.60;25.30;;;;;;5051984;28;20470;-68
2023/12/09 12:03:45;;;;;;;16.70;12.23;;;9.50;25.00;;;;;;5055236;28;20490;-68
2023/12/09 12:06:12;;;;;;;18.60;12.50;;;9.50;25.10;;;;;;5047738;28;20812;-68
2023/12/09 12:08:39;;;;;;;18.90;11.93;;;9.40;25.30;;;;;;5044798;28;20459;-68
2023/12/09 12:11:06;;;;;;;14.43;11.00;;;9.30;25.40;;;;;;5050399;28;20493;-68
2023/12/09 12:13:33;;;;;;;16.37;11.00;;;9.30;25.50;;;;;;5053972;28;20472;-68
2023/12/09 12:16:00;;;;;;;15.70;10.73;;;9.30;25.70;;;;;;5046871;28;20554;-68
2023/12/09 12:18:30;;;;;;;16.30;10.70;;;9.30;25.80;;;;;;5044529;28;20541;-68
2023/12/09 12:20:57;;;;;;;17.03;10.90;;;9.20;25.50;;;;;;5042123;28;20554;-67
2023/12/09 12:23:24;;;;;;;16.60;10.43;;;9.30;25.20;;;;;;5044425;28;20555;-69
2023/12/09 12:25:52;;;;;;;13.97;10.73;;;9.20;25.10;;;;;;5044920;28;20549;-69
2023/12/09 12:28:20;;;;;;;14.60;10.33;;;9.20;24.90;;;;;;5043722;28;20539;-68
2023/12/09 12:30:47;;;;;;;16.17;11.27;;;9.20;25.10;;;;;;5042921;28;20679;-68
2023/12/09 12:33:14;;;;;;;12.70;9.50;;;9.20;25.30;;;;;;5046843;28;20867;-68
2023/12/09 12:35:42;;;;;;;16.30;9.80;;;9.10;25.50;;;;;;5040832;28;20541;-68
2023/12/09 12:38:09;;;;;;;15.33;10.33;;;9.10;25.70;;;;;;5046336;28;21441;-69
2023/12/09 12:40:36;;;;;;;19.90;10.53;;;9.00;26.00;;;;;;5051907;28;20536;-68